Marianne Danica — OWWO2 — position and weather

sailwx.info

Track history (hours):
 
Tides and Currents Weather Stations Pressure Air Temp Water Temp Dewpoint Dewpoint Depression Visibility Wind Speed Wind Dir Waves Ship Positions

Marianne Danica

Last reported at 2016-Jul-14 23:26 UTC. Time now 2016-Jul-28 22:24 UTC.
Position N 29°19' E 032°40'.
Warning: this ship's position is 13 days out of date.

Length 71 m; draft 3.4 m.

Type: Ship (hazmat cat A). MMSI: 219544000.

Date/timePositionNaut miles runAvg speedWind from/ knotsBaromVisibWave heightAir tempDewpointWater temp
2016-Jul-14 23:26N 29°19' E 032°40'118 5.4
2016-Jul-14 01:30N 31°16' E 032°20'0 0.0
2016-Jul-13 22:20N 31°16' E 032°20'0 0.0
2016-Jul-13 21:29N 31°16' E 032°20'0 0.0
2016-Jul-13 20:32N 31°16' E 032°20'0 0.0
2016-Jul-13 19:30N 31°16' E 032°20'1 1.2
2016-Jul-13 18:33N 31°17' E 032°20'9 8.0
2016-Jul-13 17:29N 31°26' E 032°19'1010.2
2016-Jul-13 16:28N 31°33' E 032°11'19 9.6
2016-Jul-13 14:27N 31°46' E 031°54'  
2016-Jul-10 06:28N 36°26' E 015°19'1011.1
2016-Jul-10 05:33N 36°29' E 015°07'1211.4
2016-Jul-10 04:33N 36°32' E 014°53'1111.5
2016-Jul-10 03:33N 36°35' E 014°40'1211.6
2016-Jul-10 02:33N 36°39' E 014°26'1211.6
2016-Jul-10 01:33N 36°42' E 014°12'1211.8
2016-Jul-10 00:33N 36°46' E 013°58'1312.6
2016-Jul-09 23:33N 36°50' E 013°44'1212.5
2016-Jul-09 22:33N 36°54' E 013°29'1711.8
2016-Jul-09 21:06N 36°59' E 013°08'611.5
2016-Jul-09 20:34N 37°00' E 013°01'1111.3
2016-Jul-09 19:33N 37°04' E 012°47'2411.6
2016-Jul-09 17:31N 37°12' E 012°19'3611.2
2016-Jul-09 14:19N 37°26' E 011°37'911.2
2016-Jul-09 13:33N 37°29' E 011°27'1110.6
2016-Jul-09 12:34N 37°33' E 011°15'1110.7
2016-Jul-09 11:33N 37°37' E 011°03'1111.3
2016-Jul-09 10:33N 37°40' E 010°49'1311.6
2016-Jul-09 09:26N 37°43' E 010°33'11211.3
2016-Jul-08 23:33N 37°38' E 008°12'1110.5
2016-Jul-08 22:30N 37°36' E 007°58'7910.8
2016-Jul-08 15:10N 37°26' E 006°18'16910.8
2016-Jul-07 23:30N 37°04' E 002°47'3310.7
2016-Jul-07 20:24N 36°59' E 002°06'910.2
2016-Jul-07 19:32N 36°58' E 001°55'1010.1
2016-Jul-07 18:32N 36°56' E 001°43'1010.4
2016-Jul-07 17:33N 36°54' E 001°30'1110.4
2016-Jul-07 16:29N 36°52' E 001°17'320 9.7
2016-Jul-06 07:33N 36°00' W 005°15'1212.1
2016-Jul-06 06:33N 35°56' W 005°30'  
Track history (hours):
 
Tides and Currents Weather Stations Pressure Air Temp Water Temp Dewpoint Dewpoint Depression Visibility Wind Speed Wind Dir Waves Ship Positions

Marianne Danica

Last reported at 2016-Jul-14 23:26 UTC. Time now 2016-Jul-28 22:24 UTC.
Position N 29°19' E 032°40'.
Warning: this ship's position is 13 days out of date.

Length 71 m; draft 3.4 m.

Type: Ship (hazmat cat A). MMSI: 219544000.

Date/timePositionNaut miles runAvg speedWind from/ knotsBaromVisibWave heightAir tempDewpointWater temp
2016-Jul-14 23:26N 29°19' E 032°40'118 5.4
2016-Jul-14 01:30N 31°16' E 032°20'0 0.0
2016-Jul-13 22:20N 31°16' E 032°20'0 0.0
2016-Jul-13 21:29N 31°16' E 032°20'0 0.0
2016-Jul-13 20:32N 31°16' E 032°20'0 0.0
2016-Jul-13 19:30N 31°16' E 032°20'1 1.2
2016-Jul-13 18:33N 31°17' E 032°20'9 8.0
2016-Jul-13 17:29N 31°26' E 032°19'1010.2
2016-Jul-13 16:28N 31°33' E 032°11'19 9.6
2016-Jul-13 14:27N 31°46' E 031°54'  
2016-Jul-10 06:28N 36°26' E 015°19'1011.1
2016-Jul-10 05:33N 36°29' E 015°07'1211.4
2016-Jul-10 04:33N 36°32' E 014°53'1111.5
2016-Jul-10 03:33N 36°35' E 014°40'1211.6
2016-Jul-10 02:33N 36°39' E 014°26'1211.6
2016-Jul-10 01:33N 36°42' E 014°12'1211.8
2016-Jul-10 00:33N 36°46' E 013°58'1312.6
2016-Jul-09 23:33N 36°50' E 013°44'1212.5
2016-Jul-09 22:33N 36°54' E 013°29'1711.8
2016-Jul-09 21:06N 36°59' E 013°08'611.5
2016-Jul-09 20:34N 37°00' E 013°01'1111.3
2016-Jul-09 19:33N 37°04' E 012°47'2411.6
2016-Jul-09 17:31N 37°12' E 012°19'3611.2
2016-Jul-09 14:19N 37°26' E 011°37'911.2
2016-Jul-09 13:33N 37°29' E 011°27'1110.6
2016-Jul-09 12:34N 37°33' E 011°15'1110.7
2016-Jul-09 11:33N 37°37' E 011°03'1111.3
2016-Jul-09 10:33N 37°40' E 010°49'1311.6
2016-Jul-09 09:26N 37°43' E 010°33'11211.3
2016-Jul-08 23:33N 37°38' E 008°12'1110.5
2016-Jul-08 22:30N 37°36' E 007°58'7910.8
2016-Jul-08 15:10N 37°26' E 006°18'16910.8
2016-Jul-07 23:30N 37°04' E 002°47'3310.7
2016-Jul-07 20:24N 36°59' E 002°06'910.2
2016-Jul-07 19:32N 36°58' E 001°55'1010.1
2016-Jul-07 18:32N 36°56' E 001°43'1010.4
2016-Jul-07 17:33N 36°54' E 001°30'1110.4
2016-Jul-07 16:29N 36°52' E 001°17'320 9.7
2016-Jul-06 07:33N 36°00' W 005°15'1212.1
2016-Jul-06 06:33N 35°56' W 005°30'  

Dump ship's entire track history